Time;durP1;ratioP1;P1;durP2;ratioP2;P2;SDS_P1;SDS_P2;PMS_P1;PMS_P2;Temp;Humidity;BMP_temperature;BMP_pressure;BME280_temperature;BME280_humidity;BME280_pressure;Samples;Min_cycle;Max_cycle;Signal;HPM_P1;HPM_P2
2023/01/18 00:00:18;;;;;;;3.10;1.20;;;-0.80;99.90;;;;;;5128997;28;20564;-83
2023/01/18 00:02:45;;;;;;;3.03;1.45;;;-0.80;99.90;;;;;;5095605;28;20036;-83
2023/01/18 00:05:13;;;;;;;4.00;1.58;;;-0.90;99.90;;;;;;5111852;28;20491;-83
2023/01/18 00:07:39;;;;;;;2.90;1.33;;;-0.90;99.90;;;;;;5112488;28;20050;-83
2023/01/18 00:10:07;;;;;;;4.38;1.88;;;-0.90;99.90;;;;;;5112090;28;20040;-83
2023/01/18 00:12:33;;;;;;;4.57;1.35;;;-0.90;99.90;;;;;;5112531;28;20040;-83
2023/01/18 00:15:00;;;;;;;4.03;1.70;;;0.00;99.90;;;;;;5095252;28;20127;-82
2023/01/18 00:17:27;;;;;;;5.18;1.25;;;-0.20;99.90;;;;;;5095718;28;20047;-82
2023/01/18 00:19:53;;;;;;;3.08;1.33;;;-0.50;99.90;;;;;;5112376;28;20062;-83
2023/01/18 00:22:20;;;;;;;3.72;1.38;;;-0.90;99.90;;;;;;5111913;28;20074;-83
2023/01/18 00:24:47;;;;;;;9.70;2.38;;;-0.90;99.90;;;;;;5095317;28;20126;-82
2023/01/18 00:27:13;;;;;;;3.22;1.50;;;-0.20;99.90;;;;;;5111411;28;20439;-83
2023/01/18 00:29:40;;;;;;;3.53;1.50;;;-0.90;99.90;;;;;;5095452;28;20040;-82
2023/01/18 00:32:07;;;;;;;2.13;1.30;;;-0.90;99.90;;;;;;5111816;28;20044;-82
2023/01/18 00:34:34;;;;;;;3.47;1.40;;;-0.90;99.90;;;;;;5128991;28;20047;-82
2023/01/18 00:37:01;;;;;;;5.30;2.05;;;-0.90;99.90;;;;;;5111905;28;20036;-81
2023/01/18 00:39:28;;;;;;;3.95;1.67;;;-0.90;99.90;;;;;;5111937;28;20051;-77
2023/01/18 00:44:40;;;;;;;3.20;1.30;;;0.10;99.90;;;;;;5146104;28;20074;-77
2023/01/18 00:47:06;;;;;;;5.03;2.35;;;-0.60;99.90;;;;;;5128044;28;20051;-78
2023/01/18 00:49:33;;;;;;;3.83;1.55;;;-0.90;99.90;;;;;;5111845;28;20028;-77
2023/01/18 00:52:00;;;;;;;5.43;1.88;;;-0.90;99.90;;;;;;5111842;28;20082;-77
2023/01/18 00:54:26;;;;;;;4.32;1.73;;;-0.50;99.90;;;;;;5095098;28;20131;-77
2023/01/18 00:56:53;;;;;;;5.40;2.22;;;-0.80;99.90;;;;;;5095172;28;20051;-77
2023/01/18 00:59:20;;;;;;;6.38;1.67;;;-0.90;99.90;;;;;;5094641;28;20047;-77
2023/01/18 01:01:46;;;;;;;4.60;1.50;;;0.10;99.90;;;;;;5094551;28;20404;-77
2023/01/18 01:06:58;;;;;;;6.25;2.20;;;-0.90;99.90;;;;;;5128206;28;20078;-77
2023/01/18 01:09:27;;;;;;;3.00;1.42;;;-0.90;99.90;;;;;;5111224;28;20473;-77
2023/01/18 01:26:09;;;;;;;6.68;1.63;;;-1.00;99.90;;;;;;5145169;28;20040;-77
2023/01/18 01:28:38;;;;;;;4.93;1.30;;;-1.00;99.90;;;;;;5127848;28;20042;-77
2023/01/18 01:31:07;;;;;;;4.07;1.60;;;-0.20;99.90;;;;;;5127747;28;20039;-77
2023/01/18 01:33:35;;;;;;;5.60;1.63;;;-0.70;99.90;;;;;;5110770;28;20127;-77
2023/01/18 01:36:05;;;;;;;2.50;1.27;;;-1.00;99.90;;;;;;5111186;28;20135;-77
2023/01/18 01:38:32;;;;;;;2.83;1.60;;;-1.00;99.90;;;;;;5127878;28;20031;-77
2023/01/18 01:41:03;;;;;;;3.38;1.77;;;-1.00;99.90;;;;;;5110598;28;20043;-77
2023/01/18 01:43:43;;;;;;;2.95;1.90;;;-1.00;99.90;;;;;;5110599;28;20077;-77
2023/01/18 01:46:13;;;;;;;2.55;1.48;;;-1.00;99.90;;;;;;5110268;28;20094;-77
2023/01/18 01:48:40;;;;;;;3.35;1.88;;;-1.00;99.90;;;;;;5127591;28;20044;-77
2023/01/18 01:51:07;;;;;;;5.80;1.98;;;-0.10;99.90;;;;;;5110480;28;20035;-77
2023/01/18 01:53:33;;;;;;;5.63;1.73;;;-0.80;99.90;;;;;;5093576;28;20044;-78
2023/01/18 01:56:03;;;;;;;3.42;1.65;;;-1.10;99.90;;;;;;5127327;28;20405;-77
2023/01/18 01:58:31;;;;;;;3.75;1.88;;;-1.10;99.90;;;;;;5109936;28;20188;-78
2023/01/18 02:00:58;;;;;;;4.50;2.25;;;-1.10;99.90;;;;;;5127081;28;20381;-78
2023/01/18 02:03:25;;;;;;;4.35;1.63;;;-1.20;99.90;;;;;;5093271;28;20044;-78
2023/01/18 02:06:01;;;;;;;7.07;2.13;;;-1.20;99.90;;;;;;5110298;28;20452;-78
2023/01/18 02:08:28;;;;;;;2.78;1.45;;;-1.20;99.90;;;;;;5110073;28;20072;-78
2023/01/18 02:10:55;;;;;;;2.75;1.58;;;-1.20;99.90;;;;;;5110060;28;20523;-78
2023/01/18 02:13:23;;;;;;;3.33;1.73;;;-1.20;99.90;;;;;;5092577;28;20043;-78
2023/01/18 02:16:00;;;;;;;3.78;1.70;;;-0.30;99.90;;;;;;5093803;28;20040;-78
2023/01/18 02:18:50;;;;;;;4.25;1.70;;;-1.30;99.90;;;;;;5144091;28;20044;-77
2023/01/18 02:21:17;;;;;;;6.10;2.08;;;-1.30;99.90;;;;;;5126863;28;20488;-79
2023/01/18 02:24:05;;;;;;;2.63;1.50;;;-1.30;99.90;;;;;;5126765;28;20393;-77
2023/01/18 02:26:51;;;;;;;4.57;1.95;;;-1.30;99.90;;;;;;5126490;28;20446;-77
2023/01/18 02:29:55;;;;;;;2.63;1.65;;;-1.30;99.90;;;;;;5110251;28;20130;-78
2023/01/18 02:32:31;;;;;;;4.03;1.80;;;-1.40;99.90;;;;;;5126772;28;20036;-78
2023/01/18 02:35:17;;;;;;;5.28;1.80;;;-1.40;99.90;;;;;;5109833;28;20040;-78
2023/01/18 02:37:55;;;;;;;4.63;1.87;;;-1.40;99.90;;;;;;5109461;28;20541;-78
2023/01/18 02:40:43;;;;;;;3.55;2.00;;;-1.40;99.90;;;;;;5109400;28;20036;-78
2023/01/18 02:48:47;;;;;;;3.13;1.92;;;-0.80;99.90;;;;;;5126125;28;20135;-77
2023/01/18 02:51:14;;;;;;;6.50;2.25;;;-1.60;99.90;;;;;;5110002;28;20036;-77
2023/01/18 02:53:43;;;;;;;5.32;2.30;;;-1.50;99.90;;;;;;5109503;28;20035;-78
2023/01/18 02:56:48;;;;;;;5.43;3.03;;;-1.50;99.90;;;;;;5109930;28;20048;-77
2023/01/18 02:59:25;;;;;;;3.15;1.90;;;-1.60;99.90;;;;;;5104092;28;20046;-78
2023/01/18 03:01:55;;;;;;;10.50;2.13;;;-0.90;99.90;;;;;;5109719;28;20381;-78
2023/01/18 03:04:29;;;;;;;4.97;2.58;;;-1.60;99.90;;;;;;5126636;28;20052;-78
2023/01/18 03:07:14;;;;;;;3.70;2.13;;;-1.40;99.90;;;;;;5109441;28;20446;-78
2023/01/18 03:09:41;;;;;;;7.05;2.50;;;-1.60;99.90;;;;;;5109431;28;20484;-78
2023/01/18 03:12:22;;;;;;;4.53;2.40;;;-0.90;99.90;;;;;;5109385;28;20032;-78
2023/01/18 03:14:54;;;;;;;3.83;2.03;;;-1.60;99.90;;;;;;5109337;28;20032;-78
2023/01/18 03:17:40;;;;;;;9.52;2.40;;;-1.70;99.90;;;;;;5126436;28;20044;-78
2023/01/18 03:20:13;;;;;;;5.40;2.55;;;-1.60;99.90;;;;;;5109527;28;20131;-77
2023/01/18 03:25:53;;;;;;;5.53;2.45;;;-1.70;99.90;;;;;;5136843;28;20076;-77
2023/01/18 03:34:49;;;;;;;4.43;2.13;;;-0.80;99.90;;;;;;5109701;28;20867;-77
2023/01/18 03:37:32;;;;;;;5.15;2.35;;;-1.70;99.90;;;;;;5121631;28;20123;-77
2023/01/18 03:40:07;;;;;;;5.60;2.50;;;-1.70;99.90;;;;;;5109605;28;20123;-77
2023/01/18 03:43:07;;;;;;;3.45;1.88;;;-1.80;99.90;;;;;;5108992;28;20404;-78
2023/01/18 03:45:40;;;;;;;5.25;2.80;;;-1.80;99.90;;;;;;5108858;28;20044;-78
2023/01/18 03:48:08;;;;;;;5.13;2.65;;;-1.80;99.90;;;;;;5109202;28;20045;-77
2023/01/18 03:50:49;;;;;;;6.50;2.75;;;-1.50;99.90;;;;;;5092844;28;20043;-77
2023/01/18 03:53:37;;;;;;;5.50;2.42;;;-0.70;99.90;;;;;;5109081;28;20541;-77
2023/01/18 03:56:12;;;;;;;4.05;2.25;;;-1.80;99.90;;;;;;5109214;28;20098;-77
2023/01/18 03:58:41;;;;;;;4.13;2.30;;;-2.20;99.90;;;;;;5109123;28;20400;-77
2023/01/18 04:01:08;;;;;;;4.68;2.92;;;-0.70;99.90;;;;;;5076182;28;20492;-77
2023/01/18 04:03:36;;;;;;;6.93;3.28;;;-2.20;99.90;;;;;;5075535;28;20041;-78
2023/01/18 04:06:04;;;;;;;5.25;2.63;;;-1.80;99.90;;;;;;5077285;28;20504;-77
2023/01/18 04:08:31;;;;;;;6.30;2.95;;;-1.80;99.90;;;;;;5095861;28;20032;-77
2023/01/18 04:10:58;;;;;;;7.20;2.67;;;-0.70;99.90;;;;;;5095708;28;20043;-78
2023/01/18 04:13:24;;;;;;;7.25;2.85;;;-0.70;99.90;;;;;;5096389;28;20107;-78
2023/01/18 04:15:51;;;;;;;6.22;3.08;;;-1.20;99.90;;;;;;5096047;28;20088;-77
2023/01/18 04:18:18;;;;;;;6.28;3.30;;;-0.80;99.90;;;;;;5095488;28;20047;-77
2023/01/18 04:20:44;;;;;;;11.57;3.78;;;-1.60;99.90;;;;;;5112207;28;20040;-77
2023/01/18 04:23:11;;;;;;;7.47;3.33;;;-1.10;99.90;;;;;;5129186;28;20079;-77
2023/01/18 04:25:39;;;;;;;7.55;3.08;;;-1.80;99.90;;;;;;5112162;28;20408;-78
2023/01/18 04:28:06;;;;;;;8.77;3.15;;;-1.80;99.90;;;;;;5095663;28;20102;-77
2023/01/18 04:30:33;;;;;;;16.00;3.50;;;-0.70;99.90;;;;;;5112026;28;20036;-77
2023/01/18 04:32:59;;;;;;;6.63;3.55;;;-0.50;99.90;;;;;;5128796;28;20045;-77
2023/01/18 04:35:26;;;;;;;7.45;3.42;;;-0.80;99.90;;;;;;5112373;28;20036;-77
2023/01/18 04:37:53;;;;;;;5.80;3.30;;;-0.80;99.90;;;;;;5094265;28;20059;-77
2023/01/18 04:40:19;;;;;;;11.80;3.85;;;-0.60;99.90;;;;;;5112006;28;20044;-77
2023/01/18 04:42:53;;;;;;;10.27;4.15;;;-1.70;99.90;;;;;;5111770;28;20122;-77
2023/01/18 04:45:20;;;;;;;5.93;2.72;;;-1.80;99.90;;;;;;5128777;28;20063;-77
2023/01/18 04:47:47;;;;;;;7.10;3.08;;;-1.70;99.90;;;;;;5111281;28;20048;-78
2023/01/18 04:50:13;;;;;;;6.25;3.35;;;-1.80;99.90;;;;;;5145652;28;20047;-78
2023/01/18 04:52:40;;;;;;;7.75;3.50;;;;;;;;;;5095012;28;20043;-78
2023/01/18 04:55:08;;;;;;;7.03;3.35;;;-1.80;99.90;;;;;;5128632;28;20150;-77
2023/01/18 04:57:34;;;;;;;7.63;4.13;;;-1.80;99.90;;;;;;5111879;28;20044;-77
2023/01/18 05:00:01;;;;;;;7.68;3.80;;;-0.60;99.90;;;;;;5128261;28;20043;-77
2023/01/18 05:02:28;;;;;;;8.63;3.83;;;-1.70;99.90;;;;;;5095266;28;20400;-77
2023/01/18 05:04:54;;;;;;;9.93;3.90;;;-0.80;99.90;;;;;;5111348;28;20047;-77
2023/01/18 05:07:24;;;;;;;11.88;4.55;;;-1.80;99.90;;;;;;5128268;28;20131;-77
2023/01/18 05:09:51;;;;;;;8.68;4.05;;;-1.80;99.90;;;;;;5111404;28;20040;-78
2023/01/18 05:12:17;;;;;;;17.60;4.97;;;-0.60;99.90;;;;;;5094861;28;20509;-77
2023/01/18 05:14:44;;;;;;;6.10;3.47;;;-0.70;99.90;;;;;;5111343;28;20043;-78
2023/01/18 05:17:11;;;;;;;8.13;3.72;;;-1.80;99.90;;;;;;5111519;28;20036;-77
2023/01/18 05:19:39;;;;;;;6.50;2.95;;;-1.60;99.90;;;;;;5111119;28;20048;-78
2023/01/18 05:22:05;;;;;;;8.48;3.50;;;-1.80;99.90;;;;;;5110998;28;20042;-77
2023/01/18 05:24:32;;;;;;;10.90;3.65;;;-1.80;99.90;;;;;;5094461;28;20040;-77
2023/01/18 05:26:59;;;;;;;6.47;3.25;;;-0.60;99.90;;;;;;5094340;28;20040;-77
2023/01/18 05:29:26;;;;;;;6.85;3.53;;;-1.70;99.90;;;;;;5094342;28;20072;-77
2023/01/18 05:31:52;;;;;;;9.93;4.05;;;-0.80;99.90;;;;;;5127547;28;20032;-77
2023/01/18 05:34:19;;;;;;;6.78;3.63;;;-1.70;99.90;;;;;;5094395;28;20043;-78
2023/01/18 05:36:46;;;;;;;6.97;3.17;;;-0.80;99.90;;;;;;5110698;28;20097;-78
2023/01/18 05:39:13;;;;;;;10.10;3.78;;;-1.00;99.90;;;;;;5110746;28;20032;-77
2023/01/18 05:41:40;;;;;;;9.02;2.92;;;-1.40;99.90;;;;;;5110860;28;20032;-77
2023/01/18 05:44:08;;;;;;;6.80;3.17;;;-1.70;99.90;;;;;;5110725;28;20097;-77
2023/01/18 05:46:35;;;;;;;8.27;4.32;;;-1.00;99.90;;;;;;5110907;28;20044;-77
2023/01/18 05:49:01;;;;;;;6.95;3.67;;;-1.70;99.90;;;;;;5109383;28;20040;-78
2023/01/18 05:51:28;;;;;;;6.22;3.30;;;-1.70;99.90;;;;;;5093850;28;20036;-78
2023/01/18 05:53:55;;;;;;;6.35;3.22;;;-0.60;99.90;;;;;;5110734;28;20032;-78
2023/01/18 05:56:21;;;;;;;6.90;3.08;;;-0.50;99.90;;;;;;5094026;28;20043;-77
2023/01/18 05:58:48;;;;;;;6.18;3.20;;;-1.70;99.90;;;;;;5093770;28;20051;-78
2023/01/18 06:01:15;;;;;;;7.45;3.50;;;-0.80;99.90;;;;;;5110578;28;20065;-77
2023/01/18 06:03:42;;;;;;;6.03;3.33;;;-1.70;99.90;;;;;;5110764;28;20040;-77
2023/01/18 06:06:08;;;;;;;5.70;3.45;;;-1.00;99.90;;;;;;5110455;28;20036;-77
2023/01/18 06:08:35;;;;;;;7.63;4.07;;;-1.40;99.90;;;;;;5110431;28;20036;-77
2023/01/18 06:11:03;;;;;;;8.00;3.22;;;-1.70;99.90;;;;;;5127073;28;20074;-77
2023/01/18 06:13:30;;;;;;;9.52;3.53;;;-1.60;99.90;;;;;;5127240;28;20028;-77
2023/01/18 06:15:58;;;;;;;8.98;3.13;;;-0.40;99.90;;;;;;5126886;28;20035;-77
2023/01/18 06:18:27;;;;;;;7.35;2.97;;;-1.60;99.90;;;;;;5110271;28;20040;-77
2023/01/18 06:20:56;;;;;;;7.35;3.83;;;-0.50;99.90;;;;;;5109945;28;20048;-78
2023/01/18 06:23:26;;;;;;;6.45;3.28;;;-1.70;99.90;;;;;;5106555;28;20055;-78
2023/01/18 06:25:53;;;;;;;9.10;3.55;;;-1.70;99.90;;;;;;5089557;28;20090;-78
2023/01/18 06:28:21;;;;;;;10.25;3.95;;;-0.50;99.90;;;;;;5073785;28;20603;-77
2023/01/18 06:30:51;;;;;;;5.68;2.85;;;-1.30;99.90;;;;;;5106404;28;20068;-77
2023/01/18 06:33:18;;;;;;;6.75;3.53;;;-1.10;99.90;;;;;;5105712;28;20522;-77
2023/01/18 06:35:45;;;;;;;5.85;3.30;;;-1.70;99.90;;;;;;5077015;28;20039;-77
2023/01/18 06:38:12;;;;;;;7.07;3.25;;;-1.00;99.90;;;;;;5093072;28;20085;-77
2023/01/18 06:40:40;;;;;;;6.38;3.15;;;-1.70;99.90;;;;;;5110161;28;20032;-78
2023/01/18 06:43:12;;;;;;;7.95;4.40;;;-0.80;99.90;;;;;;5109438;28;20036;-78
2023/01/18 06:45:40;;;;;;;8.77;3.50;;;-0.60;99.90;;;;;;5126814;28;20082;-77
2023/01/18 06:48:06;;;;;;;6.95;3.25;;;-1.70;99.90;;;;;;5092705;28;20056;-77
2023/01/18 06:50:33;;;;;;;6.72;3.63;;;-1.70;99.90;;;;;;5109721;28;20115;-78
2023/01/18 06:53:00;;;;;;;8.80;3.40;;;-1.70;99.90;;;;;;5109706;28;20078;-78
2023/01/18 06:55:27;;;;;;;9.75;3.80;;;-0.50;99.90;;;;;;5090628;28;20036;-78
2023/01/18 06:57:55;;;;;;;6.47;3.47;;;-0.70;99.90;;;;;;5097876;28;20511;-77
2023/01/18 07:00:22;;;;;;;9.95;3.28;;;-1.50;99.90;;;;;;5089252;28;20048;-78
2023/01/18 07:02:50;;;;;;;16.85;3.55;;;-1.70;99.90;;;;;;5105982;28;20135;-78
2023/01/18 07:05:17;;;;;;;6.82;3.65;;;-0.80;99.90;;;;;;5089056;28;20409;-77
2023/01/18 07:07:45;;;;;;;4.72;2.42;;;-1.10;99.90;;;;;;5089269;28;20051;-78
2023/01/18 07:10:11;;;;;;;7.40;3.03;;;-1.60;99.90;;;;;;5089319;28;20075;-78
2023/01/18 07:12:38;;;;;;;5.47;3.10;;;-1.40;99.90;;;;;;5091818;28;20094;-77
2023/01/18 07:15:06;;;;;;;6.35;2.50;;;-0.90;99.90;;;;;;5100761;28;20067;-77
2023/01/18 07:17:32;;;;;;;6.63;3.47;;;-1.80;99.90;;;;;;5089764;28;20040;-77
2023/01/18 07:19:59;;;;;;;6.07;3.10;;;-0.60;99.90;;;;;;5089110;28;20071;-77
2023/01/18 07:22:26;;;;;;;6.65;3.63;;;-1.80;99.90;;;;;;5089458;28;20045;-78
2023/01/18 07:24:52;;;;;;;6.63;2.95;;;-1.80;99.90;;;;;;5101532;28;20484;-77
2023/01/18 07:27:19;;;;;;;5.85;2.95;;;-0.50;99.90;;;;;;5101666;28;20541;-78
2023/01/18 07:29:46;;;;;;;5.68;2.65;;;-1.30;99.90;;;;;;5098433;28;20405;-78
2023/01/18 07:32:12;;;;;;;6.95;3.30;;;-1.80;99.90;;;;;;5090606;28;20029;-78
2023/01/18 07:34:39;;;;;;;4.50;2.75;;;-1.60;99.90;;;;;;5099834;28;20063;-77
2023/01/18 07:37:06;;;;;;;8.77;3.95;;;-2.20;99.90;;;;;;5088868;28;20040;-78
2023/01/18 07:39:32;;;;;;;10.38;3.55;;;-1.80;99.90;;;;;;5089064;28;20041;-77
2023/01/18 07:41:59;;;;;;;5.50;2.95;;;-1.80;99.90;;;;;;5108945;28;20085;-78
2023/01/18 07:44:25;;;;;;;6.20;2.38;;;-0.60;99.90;;;;;;5101476;28;20040;-78
2023/01/18 07:46:52;;;;;;;6.43;3.05;;;-1.70;99.90;;;;;;5088470;28;20552;-77
2023/01/18 07:49:19;;;;;;;10.52;3.20;;;-1.10;99.90;;;;;;5113241;28;20045;-77
2023/01/18 07:51:46;;;;;;;10.65;3.75;;;-1.70;99.90;;;;;;5093585;28;20033;-77
2023/01/18 07:54:14;;;;;;;5.82;2.97;;;-1.60;99.90;;;;;;5105640;28;20037;-78
2023/01/18 07:56:40;;;;;;;6.72;2.78;;;-1.70;99.90;;;;;;5072502;28;20109;-78
2023/01/18 07:59:07;;;;;;;7.57;2.92;;;-1.60;99.90;;;;;;5089843;28;20032;-79
2023/01/18 08:01:34;;;;;;;6.70;2.83;;;-1.30;99.90;;;;;;5075354;28;20076;-77
2023/01/18 08:04:00;;;;;;;6.03;2.30;;;-1.70;99.90;;;;;;5086312;28;20559;-77
2023/01/18 08:06:27;;;;;;;6.35;2.85;;;-1.70;99.90;;;;;;5073324;28;20105;-78
2023/01/18 08:08:54;;;;;;;9.35;3.08;;;-1.60;99.90;;;;;;5089057;28;20434;-78
2023/01/18 08:11:21;;;;;;;7.28;4.45;;;-1.20;99.90;;;;;;5075525;28;20499;-78
2023/01/18 08:13:49;;;;;;;11.50;3.42;;;-0.50;99.90;;;;;;5089746;28;20037;-78
2023/01/18 08:16:16;;;;;;;9.75;3.30;;;-0.50;99.90;;;;;;5092307;28;20040;-78
2023/01/18 08:18:44;;;;;;;6.82;2.78;;;-1.70;99.90;;;;;;5120056;28;21393;-77
2023/01/18 08:21:12;;;;;;;6.07;3.40;;;-1.00;99.90;;;;;;5095684;28;20582;-78
2023/01/18 08:23:39;;;;;;;6.45;3.20;;;-1.40;99.90;;;;;;5119234;28;20036;-78
2023/01/18 08:26:07;;;;;;;5.03;2.95;;;-1.30;99.90;;;;;;5108098;28;20126;-78
2023/01/18 08:28:34;;;;;;;5.25;3.13;;;-1.60;99.90;;;;;;5101798;28;20040;-78
2023/01/18 08:31:20;;;;;;;7.15;2.22;;;-1.50;99.90;;;;;;5098472;28;20031;-78
2023/01/18 08:33:48;;;;;;;6.50;2.97;;;-1.50;99.90;;;;;;5117736;28;20377;-77
2023/01/18 08:36:21;;;;;;;11.57;3.38;;;-1.00;99.90;;;;;;5091990;28;20439;-78
2023/01/18 08:38:49;;;;;;;6.90;3.15;;;-1.50;99.90;;;;;;5108939;28;20068;-77
2023/01/18 08:41:18;;;;;;;5.47;2.63;;;-1.40;99.90;;;;;;5118380;28;20043;-78
2023/01/18 08:43:49;;;;;;;12.25;2.78;;;-1.00;99.90;;;;;;5131868;28;20049;-79
2023/01/18 08:46:16;;;;;;;8.70;3.20;;;-1.20;99.90;;;;;;5131990;28;20767;-80
2023/01/18 08:48:43;;;;;;;6.97;2.55;;;-1.40;99.90;;;;;;5098910;28;20040;-79
2023/01/18 08:51:10;;;;;;;10.40;3.28;;;-1.30;99.90;;;;;;5115129;28;20069;-79
2023/01/18 08:53:37;;;;;;;7.57;3.05;;;-1.30;99.90;;;;;;5115495;28;20035;-79
2023/01/18 08:56:07;;;;;;;12.50;2.58;;;-1.20;99.90;;;;;;5098323;28;20146;-78
2023/01/18 08:58:34;;;;;;;5.32;3.08;;;-1.30;99.90;;;;;;5098271;28;20551;-79
2023/01/18 09:01:08;;;;;;;5.70;2.80;;;-0.20;99.90;;;;;;5149060;28;20126;-79
2023/01/18 09:03:35;;;;;;;5.72;2.90;;;-1.20;99.90;;;;;;5117082;28;20040;-79
2023/01/18 09:06:08;;;;;;;5.88;2.88;;;-1.20;99.90;;;;;;5110743;28;20039;-80
2023/01/18 09:08:35;;;;;;;4.75;2.47;;;-1.10;99.90;;;;;;5103024;28;20543;-79
2023/01/18 09:11:09;;;;;;;7.93;2.92;;;-0.60;99.90;;;;;;5091251;28;20076;-79
2023/01/18 09:13:37;;;;;;;6.88;3.13;;;0.00;99.90;;;;;;5100395;28;20488;-79
2023/01/18 09:16:06;;;;;;;8.30;3.05;;;-1.00;99.90;;;;;;5110965;28;20054;-79
2023/01/18 09:18:33;;;;;;;4.88;2.72;;;-0.90;99.90;;;;;;5110907;28;20075;-79
2023/01/18 09:21:09;;;;;;;5.57;2.75;;;-0.80;99.90;;;;;;5111132;28;20054;-80
2023/01/18 09:23:38;;;;;;;8.25;3.03;;;-0.90;99.90;;;;;;5127489;28;20039;-79
2023/01/18 09:26:08;;;;;;;7.93;3.10;;;-0.80;99.90;;;;;;5127717;28;20051;-79
2023/01/18 09:28:35;;;;;;;8.02;3.40;;;-0.70;99.90;;;;;;5110470;28;20800;-79
2023/01/18 09:31:04;;;;;;;6.50;2.72;;;0.40;99.90;;;;;;5110830;28;20075;-79
2023/01/18 09:33:31;;;;;;;12.70;3.75;;;-0.70;99.90;;;;;;5107536;28;20484;-79
2023/01/18 09:36:02;;;;;;;8.10;3.03;;;-0.60;99.90;;;;;;5112996;28;20077;-79
2023/01/18 09:38:30;;;;;;;3.58;2.42;;;-0.60;99.90;;;;;;5090673;28;20477;-79
2023/01/18 09:40:58;;;;;;;8.20;3.42;;;-0.50;99.90;;;;;;5107101;28;20412;-80
2023/01/18 09:43:39;;;;;;;5.07;2.53;;;-0.50;99.90;;;;;;5096905;28;20043;-80
2023/01/18 09:46:18;;;;;;;9.50;3.45;;;0.00;99.90;;;;;;5110250;28;20039;-79
2023/01/18 09:48:52;;;;;;;10.07;3.10;;;-0.40;99.90;;;;;;5110782;28;20040;-79
2023/01/18 09:51:40;;;;;;;6.38;3.38;;;-0.20;99.90;;;;;;5109886;28;20036;-80
2023/01/18 09:54:17;;;;;;;8.75;3.45;;;0.60;99.90;;;;;;5110327;28;20048;-80
2023/01/18 09:57:16;;;;;;;9.57;3.53;;;0.50;99.90;;;;;;5127031;28;20508;-79
2023/01/18 09:59:56;;;;;;;14.45;3.17;;;-0.20;99.90;;;;;;5105302;28;20051;-79
2023/01/18 10:02:37;;;;;;;9.05;3.13;;;-1.00;99.90;;;;;;5106642;28;20385;-79
2023/01/18 10:05:12;;;;;;;7.57;3.08;;;-0.10;99.90;;;;;;5106910;28;20052;-79
2023/01/18 10:08:06;;;;;;;7.78;3.40;;;-0.10;99.90;;;;;;5111491;28;20149;-79
2023/01/18 10:10:38;;;;;;;8.57;3.90;;;0.00;99.90;;;;;;5109950;28;20043;-79
2023/01/18 10:13:13;;;;;;;12.95;3.53;;;0.00;99.90;;;;;;5110162;28;20083;-79
2023/01/18 10:15:41;;;;;;;19.67;3.42;;;0.00;99.90;;;;;;5112531;28;20045;-79
2023/01/18 10:18:08;;;;;;;6.43;2.85;;;0.80;99.90;;;;;;5089636;28;20047;-79
2023/01/18 10:20:50;;;;;;;4.80;2.80;;;0.10;99.90;;;;;;5089683;28;20036;-79
2023/01/18 10:23:25;;;;;;;6.25;2.88;;;0.20;99.90;;;;;;5089863;28;20039;-79
2023/01/18 10:26:02;;;;;;;8.65;3.40;;;0.30;99.90;;;;;;5089583;28;20040;-79
2023/01/18 10:28:57;;;;;;;5.05;2.47;;;0.30;99.90;;;;;;5111823;28;20035;-79
2023/01/18 10:31:37;;;;;;;5.50;3.17;;;0.30;99.90;;;;;;5109822;28;20046;-79
2023/01/18 10:34:28;;;;;;;5.57;2.80;;;0.90;99.90;;;;;;5109727;28;20032;-79
2023/01/18 10:37:04;;;;;;;6.70;3.28;;;0.50;99.90;;;;;;5109740;28;20101;-79
2023/01/18 10:39:57;;;;;;;13.73;3.30;;;0.50;99.90;;;;;;5126321;28;20050;-78
2023/01/18 10:42:43;;;;;;;5.82;3.60;;;0.60;99.90;;;;;;5124486;28;20040;-78
2023/01/18 10:45:20;;;;;;;11.43;3.30;;;0.60;99.90;;;;;;5126323;28;20500;-77
2023/01/18 10:47:48;;;;;;;6.38;2.88;;;0.70;99.90;;;;;;5108786;28;20040;-77
2023/01/18 10:50:37;;;;;;;8.10;2.97;;;1.30;99.90;;;;;;5126252;28;20044;-79
2023/01/18 10:53:26;;;;;;;6.18;2.83;;;1.80;99.90;;;;;;5109020;28;20086;-78
2023/01/18 10:55:55;;;;;;;9.52;3.10;;;0.80;99.90;;;;;;5109657;28;20036;-79
2023/01/18 10:58:49;;;;;;;7.65;3.38;;;0.90;99.90;;;;;;5109537;28;20399;-78
2023/01/18 11:01:19;;;;;;;5.88;2.45;;;0.90;99.90;;;;;;5109910;28;20092;-79
2023/01/18 11:03:51;;;;;;;5.68;2.80;;;1.00;99.90;;;;;;5109154;28;20063;-79
2023/01/18 11:06:19;;;;;;;5.32;2.60;;;1.00;99.90;;;;;;5109265;28;20036;-79
2023/01/18 11:08:48;;;;;;;5.35;2.85;;;1.10;99.90;;;;;;5092369;28;20045;-79
2023/01/18 11:14:29;;;;;;;4.88;2.67;;;1.20;99.90;;;;;;5126207;28;20036;-78
2023/01/18 11:17:02;;;;;;;8.80;3.55;;;1.30;99.90;;;;;;5108918;28;20400;-78
2023/01/18 11:19:29;;;;;;;11.98;3.78;;;1.40;99.90;;;;;;5108646;28;20043;-79
2023/01/18 11:21:55;;;;;;;6.07;3.45;;;2.40;99.90;;;;;;5109045;28;20044;-78
2023/01/18 11:24:27;;;;;;;4.75;2.67;;;2.40;99.90;;;;;;5088490;28;20032;-78
2023/01/18 11:27:04;;;;;;;9.35;2.80;;;1.50;99.90;;;;;;5094387;28;20072;-79
2023/01/18 11:29:38;;;;;;;4.82;2.40;;;1.60;99.90;;;;;;5119921;28;20043;-79
2023/01/18 11:32:08;;;;;;;7.18;3.10;;;1.60;99.90;;;;;;5091466;28;20036;-79
2023/01/18 11:34:38;;;;;;;7.30;2.83;;;1.60;99.90;;;;;;5100976;28;20032;-79
2023/01/18 11:37:29;;;;;;;7.80;2.30;;;1.70;99.90;;;;;;5113427;28;20044;-78
2023/01/18 11:39:56;;;;;;;9.93;3.22;;;1.80;99.90;;;;;;5105700;28;20051;-79
2023/01/18 11:42:29;;;;;;;5.22;2.40;;;1.80;99.90;;;;;;5096230;28;20044;-79
2023/01/18 11:45:15;;;;;;;6.53;2.88;;;1.80;99.90;;;;;;5118450;28;20061;-79
2023/01/18 11:48:29;;;;;;;10.02;2.85;;;1.90;99.90;;;;;;5099532;28;20044;-79
2023/01/18 11:51:22;;;;;;;6.40;2.53;;;1.90;99.90;;;;;;5070971;28;20597;-79
2023/01/18 11:54:03;;;;;;;3.70;1.75;;;1.90;99.90;;;;;;5074606;28;20098;-79
2023/01/18 11:56:44;;;;;;;7.88;3.08;;;2.00;99.90;;;;;;5092037;28;20512;-79
2023/01/18 11:59:23;;;;;;;4.40;2.15;;;2.00;99.90;;;;;;5112660;28;20051;-79
2023/01/18 12:02:07;;;;;;;6.07;2.70;;;2.10;99.90;;;;;;5112547;28;20043;-79
2023/01/18 12:04:50;;;;;;;4.50;2.28;;;2.10;99.90;;;;;;5129284;28;20208;-80
2023/01/18 12:07:49;;;;;;;7.25;2.60;;;2.10;99.90;;;;;;5116349;28;20036;-80
2023/01/18 12:10:26;;;;;;;5.93;2.50;;;2.60;99.90;;;;;;5111309;28;20392;-79
2023/01/18 12:13:14;;;;;;;14.13;2.72;;;2.20;99.90;;;;;;5128995;28;20044;-79
2023/01/18 12:15:53;;;;;;;4.63;2.17;;;2.20;99.90;;;;;;5117599;28;20075;-79
2023/01/18 12:18:20;;;;;;;6.35;2.78;;;2.30;99.90;;;;;;5112423;28;20130;-79
2023/01/18 12:21:06;;;;;;;4.13;1.80;;;2.90;99.90;;;;;;5112036;28;20128;-79
2023/01/18 12:23:53;;;;;;;7.93;2.22;;;2.30;99.90;;;;;;5117724;28;20082;-79
2023/01/18 12:26:58;;;;;;;5.30;2.50;;;3.00;99.90;;;;;;5143024;28;20060;-79
2023/01/18 12:30:03;;;;;;;7.75;2.20;;;2.40;99.90;;;;;;5122872;28;20098;-79
2023/01/18 12:33:03;;;;;;;5.18;2.42;;;2.40;99.90;;;;;;5118208;28;20051;-79
2023/01/18 12:35:50;;;;;;;6.28;2.42;;;2.40;99.90;;;;;;5121393;28;20040;-79
2023/01/18 12:38:22;;;;;;;5.22;1.85;;;2.40;99.90;;;;;;5123021;28;20032;-79
2023/01/18 12:40:49;;;;;;;4.13;2.33;;;2.40;99.90;;;;;;5120885;28;20028;-79
2023/01/18 12:43:59;;;;;;;4.47;2.20;;;2.40;99.90;;;;;;5128492;28;20553;-79
2023/01/18 12:46:58;;;;;;;4.43;2.03;;;2.40;99.90;;;;;;5097644;28;20105;-79
2023/01/18 12:49:32;;;;;;;6.03;2.53;;;2.40;99.90;;;;;;5128210;28;20065;-79
2023/01/18 12:52:01;;;;;;;3.90;2.00;;;2.40;99.90;;;;;;5128390;28;20032;-79
2023/01/18 12:54:50;;;;;;;4.13;2.15;;;3.20;99.90;;;;;;5111503;28;20068;-79
2023/01/18 12:57:19;;;;;;;8.77;1.75;;;2.50;99.90;;;;;;5128184;28;20032;-79
2023/01/18 12:59:57;;;;;;;4.07;2.45;;;2.50;99.90;;;;;;5111163;28;20130;-79
2023/01/18 13:02:40;;;;;;;4.68;1.90;;;3.10;99.90;;;;;;5091589;28;20032;-79
2023/01/18 13:05:17;;;;;;;7.88;2.38;;;2.60;99.90;;;;;;5091592;28;20047;-79
2023/01/18 13:08:13;;;;;;;5.00;2.13;;;2.60;99.90;;;;;;5125803;28;20047;-79
2023/01/18 13:10:41;;;;;;;5.32;2.42;;;2.60;99.90;;;;;;5109196;28;20484;-79
2023/01/18 13:13:16;;;;;;;8.27;2.50;;;2.60;99.90;;;;;;5076996;28;20089;-79
2023/01/18 13:16:08;;;;;;;5.75;2.08;;;2.70;99.90;;;;;;5093223;28;20041;-79
2023/01/18 13:18:47;;;;;;;5.05;2.22;;;2.70;99.90;;;;;;5097750;28;20040;-79
2023/01/18 13:21:35;;;;;;;3.85;1.90;;;2.70;99.90;;;;;;5114071;28;20036;-78
2023/01/18 13:24:40;;;;;;;4.60;2.35;;;2.70;99.90;;;;;;5107580;28;20040;-79
2023/01/18 13:27:15;;;;;;;4.53;1.95;;;2.70;99.90;;;;;;5124762;28;20621;-78
2023/01/18 13:29:42;;;;;;;4.05;2.35;;;2.70;99.90;;;;;;5108181;28;20080;-78
2023/01/18 13:32:23;;;;;;;7.05;2.67;;;2.80;99.90;;;;;;5107173;28;20070;-78
2023/01/18 13:35:04;;;;;;;4.50;1.98;;;2.80;99.90;;;;;;5090276;28;20405;-78
2023/01/18 13:37:49;;;;;;;6.03;2.70;;;2.80;99.90;;;;;;5107250;28;20182;-78
2023/01/18 13:40:21;;;;;;;5.78;2.30;;;2.80;99.90;;;;;;5094739;28;20074;-78
2023/01/18 13:42:47;;;;;;;4.57;1.90;;;2.90;99.90;;;;;;5127466;28;20048;-78
2023/01/18 13:45:24;;;;;;;4.50;1.92;;;2.90;99.90;;;;;;5110673;28;20044;-78
2023/01/18 13:47:55;;;;;;;5.22;2.08;;;2.80;99.90;;;;;;5126470;28;20098;-77
2023/01/18 13:50:29;;;;;;;7.03;2.80;;;3.40;99.90;;;;;;5127018;28;20044;-78
2023/01/18 13:53:08;;;;;;;9.68;2.90;;;2.50;99.90;;;;;;5126473;28;20527;-77